sensor_id;sensor_type;location;lat;lon;timestamp;pressure;altitude;pressure_sealevel;temperature;humidity
72900;BME280;61043;52.036;5.566;2022-07-30T00:01:13;101854.56;;;19.91;68.77
72900;BME280;61043;52.036;5.566;2022-07-30T00:03:39;101848.03;;;19.83;70.45
72900;BME280;61043;52.036;5.566;2022-07-30T00:06:06;101870.09;;;19.87;68.63
72900;BME280;61043;52.036;5.566;2022-07-30T00:08:33;101859.34;;;19.87;69.03
72900;BME280;61043;52.036;5.566;2022-07-30T00:11:00;101843.66;;;19.82;68.18
72900;BME280;61043;52.036;5.566;2022-07-30T00:13:26;101859.78;;;19.82;68.45
72900;BME280;61043;52.036;5.566;2022-07-30T00:15:53;101843.25;;;19.77;68.84
72900;BME280;61043;52.036;5.566;2022-07-30T00:18:20;101857.81;;;19.75;69.15
72900;BME280;61043;52.036;5.566;2022-07-30T00:20:48;101854.81;;;19.68;68.73
72900;BME280;61043;52.036;5.566;2022-07-30T00:23:14;101860.19;;;19.68;68.99
72900;BME280;61043;52.036;5.566;2022-07-30T00:25:41;101855.41;;;19.72;68.90
72900;BME280;61043;52.036;5.566;2022-07-30T00:28:07;101834.69;;;19.53;68.73
72900;BME280;61043;52.036;5.566;2022-07-30T00:30:34;101853.22;;;19.56;69.71
72900;BME280;61043;52.036;5.566;2022-07-30T00:33:01;101825.34;;;19.37;69.22
72900;BME280;61043;52.036;5.566;2022-07-30T00:35:27;101847.00;;;19.46;69.50
72900;BME280;61043;52.036;5.566;2022-07-30T00:37:54;101852.09;;;19.49;68.35
72900;BME280;61043;52.036;5.566;2022-07-30T00:40:21;101854.91;;;19.47;69.76
72900;BME280;61043;52.036;5.566;2022-07-30T00:42:48;101854.28;;;19.24;70.21
72900;BME280;61043;52.036;5.566;2022-07-30T00:45:16;101860.66;;;19.23;69.82
72900;BME280;61043;52.036;5.566;2022-07-30T00:47:43;101846.63;;;19.10;70.66
72900;BME280;61043;52.036;5.566;2022-07-30T00:50:11;101861.00;;;19.09;71.39
72900;BME280;61043;52.036;5.566;2022-07-30T00:52:39;101822.00;;;18.74;71.57
72900;BME280;61043;52.036;5.566;2022-07-30T00:55:08;101838.75;;;18.87;71.48
72900;BME280;61043;52.036;5.566;2022-07-30T00:57:35;101836.50;;;18.92;70.74
72900;BME280;61043;52.036;5.566;2022-07-30T01:00:07;101840.63;;;18.96;71.54
72900;BME280;61043;52.036;5.566;2022-07-30T01:02:34;101828.75;;;18.89;71.88
72900;BME280;61043;52.036;5.566;2022-07-30T01:05:01;101828.75;;;18.89;71.06
72900;BME280;61043;52.036;5.566;2022-07-30T01:07:27;101841.59;;;18.95;70.98
72900;BME280;61043;52.036;5.566;2022-07-30T01:09:54;101833.50;;;18.86;70.43
72900;BME280;61043;52.036;5.566;2022-07-30T01:12:23;101841.31;;;18.89;70.94
72900;BME280;61043;52.036;5.566;2022-07-30T01:14:51;101838.75;;;18.87;70.68
72900;BME280;61043;52.036;5.566;2022-07-30T01:17:18;101828.69;;;18.80;71.01
72900;BME280;61043;52.036;5.566;2022-07-30T01:19:45;101846.75;;;18.77;71.03
72900;BME280;61043;52.036;5.566;2022-07-30T01:22:32;101821.66;;;18.58;71.47
72900;BME280;61043;52.036;5.566;2022-07-30T01:27:58;101834.47;;;18.33;71.49
72900;BME280;61043;52.036;5.566;2022-07-30T01:30:30;101838.44;;;18.29;72.92
72900;BME280;61043;52.036;5.566;2022-07-30T01:33:00;101825.72;;;18.31;72.81
72900;BME280;61043;52.036;5.566;2022-07-30T01:35:29;101837.88;;;18.35;73.12
72900;BME280;61043;52.036;5.566;2022-07-30T01:37:58;101838.16;;;18.32;73.87
72900;BME280;61043;52.036;5.566;2022-07-30T01:40:27;101822.72;;;18.24;73.75
72900;BME280;61043;52.036;5.566;2022-07-30T01:42:54;101830.22;;;18.30;72.66
72900;BME280;61043;52.036;5.566;2022-07-30T01:45:26;101822.34;;;18.29;72.00
72900;BME280;61043;52.036;5.566;2022-07-30T01:47:54;101831.41;;;18.38;72.27
72900;BME280;61043;52.036;5.566;2022-07-30T01:50:22;101818.66;;;18.30;72.07
72900;BME280;61043;52.036;5.566;2022-07-30T01:52:52;101825.59;;;18.32;72.86
72900;BME280;61043;52.036;5.566;2022-07-30T01:55:32;101816.28;;;18.16;72.70
72900;BME280;61043;52.036;5.566;2022-07-30T01:58:00;101822.78;;;18.13;73.30
72900;BME280;61043;52.036;5.566;2022-07-30T02:00:30;101834.59;;;18.10;73.69
72900;BME280;61043;52.036;5.566;2022-07-30T02:02:58;101820.81;;;17.94;73.27
72900;BME280;61043;52.036;5.566;2022-07-30T02:05:26;101844.16;;;18.03;73.21
72900;BME280;61043;52.036;5.566;2022-07-30T02:08:00;101834.66;;;17.99;73.95
72900;BME280;61043;52.036;5.566;2022-07-30T02:10:34;101841.69;;;18.11;72.61
72900;BME280;61043;52.036;5.566;2022-07-30T02:13:06;101831.47;;;18.05;73.27
72900;BME280;61043;52.036;5.566;2022-07-30T02:15:53;101841.13;;;17.97;72.63
72900;BME280;61043;52.036;5.566;2022-07-30T02:21:11;101843.22;;;17.93;73.04
72900;BME280;61043;52.036;5.566;2022-07-30T02:23:41;101846.88;;;17.92;73.41
72900;BME280;61043;52.036;5.566;2022-07-30T02:26:12;101843.50;;;17.90;73.00
72900;BME280;61043;52.036;5.566;2022-07-30T02:28:47;101834.94;;;17.96;72.50
72900;BME280;61043;52.036;5.566;2022-07-30T02:31:20;101843.28;;;18.03;73.04
72900;BME280;61043;52.036;5.566;2022-07-30T02:33:49;101831.88;;;18.01;72.55
72900;BME280;61043;52.036;5.566;2022-07-30T02:36:18;101828.31;;;18.00;72.10
72900;BME280;61043;52.036;5.566;2022-07-30T02:38:46;101831.16;;;17.99;72.30
72900;BME280;61043;52.036;5.566;2022-07-30T02:41:17;101832.50;;;17.93;72.56
72900;BME280;61043;52.036;5.566;2022-07-30T02:43:46;101847.47;;;17.96;72.35
72900;BME280;61043;52.036;5.566;2022-07-30T02:46:14;101839.72;;;17.93;72.72
72900;BME280;61043;52.036;5.566;2022-07-30T02:48:44;101838.03;;;17.80;72.95
72900;BME280;61043;52.036;5.566;2022-07-30T02:51:15;101841.03;;;17.87;72.64
72900;BME280;61043;52.036;5.566;2022-07-30T02:53:45;101836.44;;;17.78;72.50
72900;BME280;61043;52.036;5.566;2022-07-30T02:56:13;101841.47;;;17.82;72.40
72900;BME280;61043;52.036;5.566;2022-07-30T02:58:43;101843.63;;;17.77;73.90
72900;BME280;61043;52.036;5.566;2022-07-30T03:01:12;101833.75;;;17.78;72.72
72900;BME280;61043;52.036;5.566;2022-07-30T03:03:44;101837.66;;;17.74;73.37
72900;BME280;61043;52.036;5.566;2022-07-30T03:06:15;101833.81;;;17.55;74.57
72900;BME280;61043;52.036;5.566;2022-07-30T03:08:44;101844.53;;;17.55;74.62
72900;BME280;61043;52.036;5.566;2022-07-30T03:11:12;101830.72;;;17.39;74.94
72900;BME280;61043;52.036;5.566;2022-07-30T03:13:39;101848.09;;;17.44;74.33
72900;BME280;61043;52.036;5.566;2022-07-30T03:16:08;101850.88;;;17.43;74.87
72900;BME280;61043;52.036;5.566;2022-07-30T03:18:36;101849.09;;;17.32;75.45
72900;BME280;61043;52.036;5.566;2022-07-30T03:21:06;101838.16;;;17.24;75.22
72900;BME280;61043;52.036;5.566;2022-07-30T03:23:35;101849.94;;;17.33;74.52
72900;BME280;61043;52.036;5.566;2022-07-30T03:26:05;101850.03;;;17.42;73.90
72900;BME280;61043;52.036;5.566;2022-07-30T03:28:37;101854.91;;;17.49;73.61
72900;BME280;61043;52.036;5.566;2022-07-30T03:31:07;101856.72;;;17.48;73.76
72900;BME280;61043;52.036;5.566;2022-07-30T03:33:37;101858.69;;;17.35;74.54
72900;BME280;61043;52.036;5.566;2022-07-30T03:36:05;101855.19;;;17.34;73.62
72900;BME280;61043;52.036;5.566;2022-07-30T03:38:33;101870.13;;;17.37;74.41
72900;BME280;61043;52.036;5.566;2022-07-30T03:41:03;101865.53;;;17.39;73.65
72900;BME280;61043;52.036;5.566;2022-07-30T03:43:30;101862.69;;;17.40;73.28
72900;BME280;61043;52.036;5.566;2022-07-30T03:46:01;101851.28;;;17.38;73.74
72900;BME280;61043;52.036;5.566;2022-07-30T03:48:30;101858.69;;;17.35;74.20
72900;BME280;61043;52.036;5.566;2022-07-30T03:51:00;101855.19;;;17.34;74.23
72900;BME280;61043;52.036;5.566;2022-07-30T03:53:28;101855.78;;;17.38;73.50
72900;BME280;61043;52.036;5.566;2022-07-30T03:55:55;101860.41;;;17.36;73.14
72900;BME280;61043;52.036;5.566;2022-07-30T03:58:22;101855.06;;;17.36;74.10
72900;BME280;61043;52.036;5.566;2022-07-30T04:00:49;101853.81;;;17.40;73.16
72900;BME280;61043;52.036;5.566;2022-07-30T04:03:26;101853.34;;;17.35;73.78
72900;BME280;61043;52.036;5.566;2022-07-30T04:05:53;101858.91;;;17.43;73.72
72900;BME280;61043;52.036;5.566;2022-07-30T04:08:20;101862.69;;;17.40;73.44
72900;BME280;61043;52.036;5.566;2022-07-30T04:10:50;101865.78;;;17.36;73.44
72900;BME280;61043;52.036;5.566;2022-07-30T04:13:17;101874.50;;;17.38;73.61
72900;BME280;61043;52.036;5.566;2022-07-30T04:16:01;101868.56;;;17.34;73.26
72900;BME280;61043;52.036;5.566;2022-07-30T04:18:52;101867.09;;;17.30;74.30
72900;BME280;61043;52.036;5.566;2022-07-30T04:21:22;101878.69;;;17.31;73.81
72900;BME280;61043;52.036;5.566;2022-07-30T04:23:49;101861.75;;;17.30;73.65
72900;BME280;61043;52.036;5.566;2022-07-30T04:26:31;101875.25;;;17.40;72.84
72900;BME280;61043;52.036;5.566;2022-07-30T04:28:59;101878.44;;;17.34;73.04
72900;BME280;61043;52.036;5.566;2022-07-30T04:31:27;101880.63;;;17.29;73.83
72900;BME280;61043;52.036;5.566;2022-07-30T04:33:54;101872.63;;;17.17;73.71
72900;BME280;61043;52.036;5.566;2022-07-30T04:36:31;101878.56;;;17.21;74.44
72900;BME280;61043;52.036;5.566;2022-07-30T04:38:58;101893.88;;;17.19;73.54
72900;BME280;61043;52.036;5.566;2022-07-30T04:41:25;101887.44;;;17.21;73.09
72900;BME280;61043;52.036;5.566;2022-07-30T04:43:52;101900.44;;;17.26;73.71
72900;BME280;61043;52.036;5.566;2022-07-30T04:46:18;101891.56;;;17.25;73.33
72900;BME280;61043;52.036;5.566;2022-07-30T04:48:50;101881.56;;;17.28;73.29
72900;BME280;61043;52.036;5.566;2022-07-30T04:51:21;101903.09;;;17.37;73.47
72900;BME280;61043;52.036;5.566;2022-07-30T04:53:50;101896.19;;;17.35;72.91
72900;BME280;61043;52.036;5.566;2022-07-30T04:56:19;101902.16;;;17.38;73.49
72900;BME280;61043;52.036;5.566;2022-07-30T04:58:47;101896.19;;;17.35;73.52
72900;BME280;61043;52.036;5.566;2022-07-30T05:01:17;101896.19;;;17.35;73.66
72900;BME280;61043;52.036;5.566;2022-07-30T05:03:49;101893.97;;;17.40;73.42
72900;BME280;61043;52.036;5.566;2022-07-30T05:06:16;101897.50;;;17.40;73.37
72900;BME280;61043;52.036;5.566;2022-07-30T05:08:43;101897.66;;;17.39;74.11
72900;BME280;61043;52.036;5.566;2022-07-30T05:11:11;101899.09;;;17.43;74.14
72900;BME280;61043;52.036;5.566;2022-07-30T05:13:47;101897.38;;;17.42;74.69
72900;BME280;61043;52.036;5.566;2022-07-30T05:16:14;101901.03;;;17.52;73.16
72900;BME280;61043;52.036;5.566;2022-07-30T05:18:41;101896.88;;;17.48;73.44
72900;BME280;61043;52.036;5.566;2022-07-30T05:21:08;101903.72;;;17.52;73.52
72900;BME280;61043;52.036;5.566;2022-07-30T05:23:34;101902.72;;;17.53;73.91
72900;BME280;61043;52.036;5.566;2022-07-30T05:26:01;101903.81;;;17.51;74.54
72900;BME280;61043;52.036;5.566;2022-07-30T05:28:28;101912.69;;;17.62;74.55
72900;BME280;61043;52.036;5.566;2022-07-30T05:30:55;101917.91;;;17.75;73.34
72900;BME280;61043;52.036;5.566;2022-07-30T05:33:22;101924.34;;;17.84;72.63
72900;BME280;61043;52.036;5.566;2022-07-30T05:36:15;101920.78;;;17.95;71.95
72900;BME280;61043;52.036;5.566;2022-07-30T05:38:43;101920.78;;;17.95;73.30
72900;BME280;61043;52.036;5.566;2022-07-30T05:41:09;101928.44;;;17.99;72.53
72900;BME280;61043;52.036;5.566;2022-07-30T05:43:56;101918.59;;;18.00;73.19
72900;BME280;61043;52.036;5.566;2022-07-30T05:46:23;101907.59;;;18.03;71.98
72900;BME280;61043;52.036;5.566;2022-07-30T05:48:49;101917.22;;;18.05;73.90
72900;BME280;61043;52.036;5.566;2022-07-30T05:51:16;101927.44;;;18.11;72.42
72900;BME280;61043;52.036;5.566;2022-07-30T05:53:44;101916.66;;;18.23;72.40
72900;BME280;61043;52.036;5.566;2022-07-30T05:56:14;101927.09;;;18.37;72.49
72900;BME280;61043;52.036;5.566;2022-07-30T05:58:40;101924.72;;;18.44;71.56
72900;BME280;61043;52.036;5.566;2022-07-30T06:01:07;101917.88;;;18.51;71.20
72900;BME280;61043;52.036;5.566;2022-07-30T06:03:33;101924.03;;;18.63;70.84
72900;BME280;61043;52.036;5.566;2022-07-30T06:06:03;101934.16;;;18.59;70.83
72900;BME280;61043;52.036;5.566;2022-07-30T06:08:30;101930.69;;;18.68;71.13
72900;BME280;61043;52.036;5.566;2022-07-30T06:10:57;101933.06;;;18.83;71.20
72900;BME280;61043;52.036;5.566;2022-07-30T06:13:23;101939.81;;;18.77;72.29
72900;BME280;61043;52.036;5.566;2022-07-30T06:15:50;101948.31;;;18.82;71.86
72900;BME280;61043;52.036;5.566;2022-07-30T06:18:17;101937.09;;;18.98;70.03
72900;BME280;61043;52.036;5.566;2022-07-30T06:20:44;101929.94;;;19.08;70.75
72900;BME280;61043;52.036;5.566;2022-07-30T06:23:11;101938.00;;;19.08;70.73
72900;BME280;61043;52.036;5.566;2022-07-30T06:25:37;101940.47;;;19.21;70.26
72900;BME280;61043;52.036;5.566;2022-07-30T06:28:05;101953.66;;;19.34;69.22
72900;BME280;61043;52.036;5.566;2022-07-30T06:30:52;101943.94;;;19.33;68.84
72900;BME280;61043;52.036;5.566;2022-07-30T06:33:18;101948.88;;;19.37;69.36
72900;BME280;61043;52.036;5.566;2022-07-30T06:35:45;101953.44;;;19.47;69.06
72900;BME280;61043;52.036;5.566;2022-07-30T06:38:12;101934.03;;;19.33;68.26
72900;BME280;61043;52.036;5.566;2022-07-30T06:40:39;101956.00;;;19.58;68.00
72900;BME280;61043;52.036;5.566;2022-07-30T06:43:06;101950.41;;;19.71;67.79
72900;BME280;61043;52.036;5.566;2022-07-30T06:45:32;101958.09;;;19.85;66.29
72900;BME280;61043;52.036;5.566;2022-07-30T06:47:59;101958.81;;;19.97;66.46
72900;BME280;61043;52.036;5.566;2022-07-30T06:50:26;101966.88;;;19.97;65.98
72900;BME280;61043;52.036;5.566;2022-07-30T06:52:52;101945.66;;;19.94;66.66
72900;BME280;61043;52.036;5.566;2022-07-30T06:55:19;101950.47;;;20.10;67.16
72900;BME280;61043;52.036;5.566;2022-07-30T06:57:46;101957.00;;;20.07;65.76
72900;BME280;61043;52.036;5.566;2022-07-30T07:00:12;101957.84;;;20.17;65.56
72900;BME280;61043;52.036;5.566;2022-07-30T07:02:39;101959.41;;;20.29;65.12
72900;BME280;61043;52.036;5.566;2022-07-30T07:05:08;101934.91;;;20.23;65.45
72900;BME280;61043;52.036;5.566;2022-07-30T07:07:35;101944.56;;;20.45;65.16
72900;BME280;61043;52.036;5.566;2022-07-30T07:10:08;101941.72;;;20.66;63.38
72900;BME280;61043;52.036;5.566;2022-07-30T07:12:35;101959.84;;;20.73;62.50
72900;BME280;61043;52.036;5.566;2022-07-30T07:15:02;101951.06;;;20.71;64.21
72900;BME280;61043;52.036;5.566;2022-07-30T07:17:29;101947.94;;;20.66;62.83
72900;BME280;61043;52.036;5.566;2022-07-30T07:19:55;101948.81;;;20.57;62.27
72900;BME280;61043;52.036;5.566;2022-07-30T07:22:27;101957.72;;;20.67;63.08
72900;BME280;61043;52.036;5.566;2022-07-30T07:24:53;101953.75;;;20.81;61.09
72900;BME280;61043;52.036;5.566;2022-07-30T07:27:22;101942.53;;;20.86;61.04
72900;BME280;61043;52.036;5.566;2022-07-30T07:29:49;101953.00;;;21.26;60.19
72900;BME280;61043;52.036;5.566;2022-07-30T07:32:32;101962.66;;;21.29;59.34
72900;BME280;61043;52.036;5.566;2022-07-30T07:35:00;101960.59;;;21.03;59.88
72900;BME280;61043;52.036;5.566;2022-07-30T07:37:26;101969.16;;;20.89;60.63
72900;BME280;61043;52.036;5.566;2022-07-30T07:39:53;101974.56;;;20.69;60.81
72900;BME280;61043;52.036;5.566;2022-07-30T07:42:20;101969.34;;;20.68;61.17
72900;BME280;61043;52.036;5.566;2022-07-30T07:44:47;101966.31;;;20.90;59.86
72900;BME280;61043;52.036;5.566;2022-07-30T07:47:13;101987.63;;;21.21;59.17
72900;BME280;61043;52.036;5.566;2022-07-30T07:49:40;101980.97;;;21.25;58.79
72900;BME280;61043;52.036;5.566;2022-07-30T07:52:07;101982.44;;;21.00;58.87
72900;BME280;61043;52.036;5.566;2022-07-30T07:54:33;101980.28;;;21.13;59.58
72900;BME280;61043;52.036;5.566;2022-07-30T07:57:00;101971.84;;;21.36;59.17
72900;BME280;61043;52.036;5.566;2022-07-30T07:59:29;101972.19;;;21.13;58.22
72900;BME280;61043;52.036;5.566;2022-07-30T08:02:06;101952.69;;;21.02;58.52
72900;BME280;61043;52.036;5.566;2022-07-30T08:04:33;101970.44;;;21.32;58.39
72900;BME280;61043;52.036;5.566;2022-07-30T08:07:00;101962.44;;;21.50;57.68
72900;BME280;61043;52.036;5.566;2022-07-30T08:09:27;101969.56;;;21.51;57.61
72900;BME280;61043;52.036;5.566;2022-07-30T08:12:10;101969.34;;;21.62;56.00
72900;BME280;61043;52.036;5.566;2022-07-30T08:14:37;101972.06;;;21.52;56.95
72900;BME280;61043;52.036;5.566;2022-07-30T08:17:03;101966.09;;;21.58;56.24
72900;BME280;61043;52.036;5.566;2022-07-30T08:19:31;101970.22;;;21.80;55.87
72900;BME280;61043;52.036;5.566;2022-07-30T08:21:57;101964.94;;;22.07;55.79
72900;BME280;61043;52.036;5.566;2022-07-30T08:24:25;101963.75;;;22.37;55.40
72900;BME280;61043;52.036;5.566;2022-07-30T08:26:52;101963.13;;;22.43;54.84
72900;BME280;61043;52.036;5.566;2022-07-30T08:29:18;101963.69;;;22.29;55.78
72900;BME280;61043;52.036;5.566;2022-07-30T08:31:45;101961.53;;;22.04;56.05
72900;BME280;61043;52.036;5.566;2022-07-30T08:34:11;101959.84;;;22.03;54.96
72900;BME280;61043;52.036;5.566;2022-07-30T08:36:39;101952.38;;;21.97;54.95
72900;BME280;61043;52.036;5.566;2022-07-30T08:39:07;101964.84;;;22.26;54.61
72900;BME280;61043;52.036;5.566;2022-07-30T08:41:35;101964.97;;;22.42;53.76
72900;BME280;61043;52.036;5.566;2022-07-30T08:44:02;101970.28;;;22.52;53.32
72900;BME280;61043;52.036;5.566;2022-07-30T08:46:35;101969.69;;;22.84;52.77
72900;BME280;61043;52.036;5.566;2022-07-30T08:49:12;101973.06;;;22.86;52.92
72900;BME280;61043;52.036;5.566;2022-07-30T08:51:39;101972.69;;;22.55;53.16
72900;BME280;61043;52.036;5.566;2022-07-30T08:54:06;101976.91;;;22.58;53.49
72900;BME280;61043;52.036;5.566;2022-07-30T08:56:33;101952.81;;;22.64;52.68
72900;BME280;61043;52.036;5.566;2022-07-30T08:59:00;101956.88;;;22.86;52.00
72900;BME280;61043;52.036;5.566;2022-07-30T09:01:27;101968.00;;;22.83;51.04
72900;BME280;61043;52.036;5.566;2022-07-30T09:03:53;101959.56;;;22.86;51.64
72900;BME280;61043;52.036;5.566;2022-07-30T09:06:20;101960.69;;;22.76;50.29
72900;BME280;61043;52.036;5.566;2022-07-30T09:08:47;101969.63;;;22.76;50.95
72900;BME280;61043;52.036;5.566;2022-07-30T09:11:14;101962.03;;;22.98;50.89
72900;BME280;61043;52.036;5.566;2022-07-30T09:13:41;101973.31;;;23.19;50.64
72900;BME280;61043;52.036;5.566;2022-07-30T09:16:18;101962.78;;;23.08;50.57
72900;BME280;61043;52.036;5.566;2022-07-30T09:18:45;101954.25;;;23.29;50.67
72900;BME280;61043;52.036;5.566;2022-07-30T09:21:17;101970.31;;;23.65;49.74
72900;BME280;61043;52.036;5.566;2022-07-30T09:23:58;101968.84;;;23.79;48.94
72900;BME280;61043;52.036;5.566;2022-07-30T09:26:25;101972.09;;;23.90;49.53
72900;BME280;61043;52.036;5.566;2022-07-30T09:28:52;101965.66;;;23.91;49.35
72900;BME280;61043;52.036;5.566;2022-07-30T09:31:20;101977.88;;;23.95;49.56
72900;BME280;61043;52.036;5.566;2022-07-30T09:33:47;101972.25;;;23.97;49.12
72900;BME280;61043;52.036;5.566;2022-07-30T09:36:16;101975.66;;;23.99;48.54
72900;BME280;61043;52.036;5.566;2022-07-30T09:38:44;101983.44;;;24.02;46.53
72900;BME280;61043;52.036;5.566;2022-07-30T09:41:11;101993.59;;;23.92;46.18
72900;BME280;61043;52.036;5.566;2022-07-30T09:43:59;101971.97;;;24.00;46.73
72900;BME280;61043;52.036;5.566;2022-07-30T09:46:44;101983.50;;;24.27;47.05
72900;BME280;61043;52.036;5.566;2022-07-30T09:49:18;101983.03;;;24.56;45.69
72900;BME280;61043;52.036;5.566;2022-07-30T09:51:45;101975.38;;;24.35;46.55
72900;BME280;61043;52.036;5.566;2022-07-30T09:54:23;101982.16;;;24.31;46.82
72900;BME280;61043;52.036;5.566;2022-07-30T09:57:04;101980.44;;;24.13;48.44
72900;BME280;61043;52.036;5.566;2022-07-30T09:59:52;101967.09;;;24.28;47.81
72900;BME280;61043;52.036;5.566;2022-07-30T10:02:20;101979.13;;;24.50;47.48
72900;BME280;61043;52.036;5.566;2022-07-30T10:04:53;101977.78;;;24.71;47.21
72900;BME280;61043;52.036;5.566;2022-07-30T10:07:21;101968.09;;;24.84;46.29
72900;BME280;61043;52.036;5.566;2022-07-30T10:09:51;101964.19;;;24.95;46.40
72900;BME280;61043;52.036;5.566;2022-07-30T10:12:19;101954.81;;;25.31;46.17
72900;BME280;61043;52.036;5.566;2022-07-30T10:14:52;101961.28;;;25.05;45.02
72900;BME280;61043;52.036;5.566;2022-07-30T10:17:19;101955.75;;;24.98;45.38
72900;BME280;61043;52.036;5.566;2022-07-30T10:19:47;101949.00;;;24.78;45.07
72900;BME280;61043;52.036;5.566;2022-07-30T10:22:14;101955.03;;;25.04;45.90
72900;BME280;61043;52.036;5.566;2022-07-30T10:24:43;101942.50;;;25.12;44.99
72900;BME280;61043;52.036;5.566;2022-07-30T10:27:10;101951.91;;;25.40;44.77
72900;BME280;61043;52.036;5.566;2022-07-30T10:29:38;101943.56;;;25.42;44.69
72900;BME280;61043;52.036;5.566;2022-07-30T10:32:08;101947.09;;;25.50;44.39
72900;BME280;61043;52.036;5.566;2022-07-30T10:34:34;101945.47;;;25.72;44.14
72900;BME280;61043;52.036;5.566;2022-07-30T10:37:09;101946.59;;;25.86;43.87
72900;BME280;61043;52.036;5.566;2022-07-30T10:40:11;101953.97;;;26.01;43.40
72900;BME280;61043;52.036;5.566;2022-07-30T10:43:04;101949.50;;;26.31;42.73
72900;BME280;61043;52.036;5.566;2022-07-30T10:45:56;101951.97;;;26.41;42.87
72900;BME280;61043;52.036;5.566;2022-07-30T10:48:31;101933.84;;;26.18;44.14
72900;BME280;61043;52.036;5.566;2022-07-30T10:50:59;101961.38;;;26.30;43.04
72900;BME280;61043;52.036;5.566;2022-07-30T10:53:35;101954.66;;;26.41;42.60
72900;BME280;61043;52.036;5.566;2022-07-30T10:56:17;101950.59;;;26.22;42.86
72900;BME280;61043;52.036;5.566;2022-07-30T10:59:06;101949.59;;;26.37;41.76
72900;BME280;61043;52.036;5.566;2022-07-30T11:06:46;101943.50;;;26.35;41.10
72900;BME280;61043;52.036;5.566;2022-07-30T11:09:36;101953.44;;;26.28;42.38
72900;BME280;61043;52.036;5.566;2022-07-30T11:12:08;101946.91;;;26.37;41.10
72900;BME280;61043;52.036;5.566;2022-07-30T11:17:15;101941.88;;;26.72;40.53
72900;BME280;61043;52.036;5.566;2022-07-30T11:22:29;101944.78;;;26.86;39.51
72900;BME280;61043;52.036;5.566;2022-07-30T11:25:10;101950.59;;;27.12;40.00
72900;BME280;61043;52.036;5.566;2022-07-30T11:28:39;101960.84;;;27.40;39.38
72900;BME280;61043;52.036;5.566;2022-07-30T11:31:30;101950.25;;;27.45;40.70
72900;BME280;61043;52.036;5.566;2022-07-30T11:42:31;101944.47;;;27.70;38.68
72900;BME280;61043;52.036;5.566;2022-07-30T11:45:18;101944.84;;;27.81;39.45
72900;BME280;61043;52.036;5.566;2022-07-30T11:47:54;101954.31;;;27.71;38.55
72900;BME280;61043;52.036;5.566;2022-07-30T11:50:28;101948.69;;;27.87;39.00
72900;BME280;61043;52.036;5.566;2022-07-30T11:53:23;101943.75;;;28.19;37.95
72900;BME280;61043;52.036;5.566;2022-07-30T11:56:00;101935.50;;;28.34;39.37
72900;BME280;61043;52.036;5.566;2022-07-30T11:58:31;101949.00;;;28.42;37.64
72900;BME280;61043;52.036;5.566;2022-07-30T12:01:02;101938.84;;;28.07;37.58
72900;BME280;61043;52.036;5.566;2022-07-30T12:03:39;101945.31;;;28.06;38.36
72900;BME280;61043;52.036;5.566;2022-07-30T12:06:08;101941.78;;;27.91;37.90
72900;BME280;61043;52.036;5.566;2022-07-30T12:08:40;101941.03;;;27.97;39.02
72900;BME280;61043;52.036;5.566;2022-07-30T12:11:08;101924.19;;;27.72;38.95
72900;BME280;61043;52.036;5.566;2022-07-30T12:13:35;101936.47;;;27.83;38.02
72900;BME280;61043;52.036;5.566;2022-07-30T12:16:14;101942.66;;;27.77;38.66
72900;BME280;61043;52.036;5.566;2022-07-30T12:18:45;101911.81;;;27.84;37.52
72900;BME280;61043;52.036;5.566;2022-07-30T12:21:12;101927.78;;;28.37;37.65
72900;BME280;61043;52.036;5.566;2022-07-30T12:24:01;101935.91;;;28.52;38.24
72900;BME280;61043;52.036;5.566;2022-07-30T12:26:33;101932.34;;;28.51;37.04
72900;BME280;61043;52.036;5.566;2022-07-30T12:29:05;101923.34;;;28.86;36.55
72900;BME280;61043;52.036;5.566;2022-07-30T12:31:35;101929.66;;;28.37;36.19
72900;BME280;61043;52.036;5.566;2022-07-30T12:34:03;101926.38;;;28.20;36.57
72900;BME280;61043;52.036;5.566;2022-07-30T12:36:32;101917.56;;;27.96;37.87
72900;BME280;61043;52.036;5.566;2022-07-30T12:39:01;101937.22;;;27.77;37.39
72900;BME280;61043;52.036;5.566;2022-07-30T12:41:46;101927.09;;;27.71;41.05
72900;BME280;61043;52.036;5.566;2022-07-30T12:44:41;101930.28;;;27.74;40.45
72900;BME280;61043;52.036;5.566;2022-07-30T12:47:25;101923.66;;;27.98;38.73
72900;BME280;61043;52.036;5.566;2022-07-30T12:49:54;101924.50;;;27.99;38.24
72900;BME280;61043;52.036;5.566;2022-07-30T12:52:25;101934.50;;;27.92;38.33
72900;BME280;61043;52.036;5.566;2022-07-30T12:55:07;101936.75;;;28.09;39.52
72900;BME280;61043;52.036;5.566;2022-07-30T12:58:00;101933.44;;;28.14;39.46
72900;BME280;61043;52.036;5.566;2022-07-30T13:03:23;101925.31;;;28.42;37.02
72900;BME280;61043;52.036;5.566;2022-07-30T13:05:51;101937.59;;;28.31;37.74
72900;BME280;61043;52.036;5.566;2022-07-30T13:08:44;101918.22;;;27.98;36.63
72900;BME280;61043;52.036;5.566;2022-07-30T13:11:12;101928.81;;;28.15;37.66
72900;BME280;61043;52.036;5.566;2022-07-30T13:13:38;101930.47;;;28.30;37.68
72900;BME280;61043;52.036;5.566;2022-07-30T13:16:06;101925.94;;;28.66;36.94
72900;BME280;61043;52.036;5.566;2022-07-30T13:18:34;101908.69;;;28.59;36.87
72900;BME280;61043;52.036;5.566;2022-07-30T13:21:02;101924.34;;;28.78;36.87
72900;BME280;61043;52.036;5.566;2022-07-30T13:23:30;101913.72;;;28.55;35.70
72900;BME280;61043;52.036;5.566;2022-07-30T13:25:56;101912.06;;;28.61;36.44
72900;BME280;61043;52.036;5.566;2022-07-30T13:28:23;101908.75;;;29.00;36.54
72900;BME280;61043;52.036;5.566;2022-07-30T13:30:51;101924.88;;;29.30;36.83
72900;BME280;61043;52.036;5.566;2022-07-30T13:33:17;101913.47;;;29.13;35.30
72900;BME280;61043;52.036;5.566;2022-07-30T13:35:44;101907.50;;;29.37;36.71